createdAt,value
2018-08-06T00:00:24.209Z,68.37
2018-08-06T00:02:52.915Z,69.40
2018-08-06T00:05:21.588Z,66.80
2018-08-06T00:07:50.340Z,69.83
2018-08-06T00:10:20.595Z,70.35
2018-08-06T00:12:49.208Z,71.87
2018-08-06T00:15:17.907Z,68.90
2018-08-06T00:17:46.696Z,67.94
2018-08-06T00:20:16.112Z,73.74
2018-08-06T00:22:45.028Z,71.19
2018-08-06T00:25:15.104Z,72.01
2018-08-06T00:27:44.638Z,71.70
2018-08-06T00:30:15.020Z,71.79
2018-08-06T00:32:44.451Z,65.10
2018-08-06T00:35:13.792Z,65.00
2018-08-06T00:37:42.611Z,63.41
2018-08-06T00:40:14.230Z,62.84
2018-08-06T00:42:43.680Z,67.18
2018-08-06T00:45:15.411Z,72.60
2018-08-06T00:47:44.571Z,74.08
2018-08-06T00:50:13.453Z,71.68
2018-08-06T00:52:42.209Z,74.11
2018-08-06T00:55:14.456Z,72.23
2018-08-06T00:57:43.378Z,67.28
2018-08-06T01:00:14.263Z,68.50
2018-08-06T01:02:43.469Z,74.05
2018-08-06T01:05:13.578Z,74.90
2018-08-06T01:07:43.236Z,71.17
2018-08-06T01:10:13.801Z,71.88
2018-08-06T01:12:42.436Z,71.37
2018-08-06T01:15:13.369Z,73.14
2018-08-06T01:17:42.307Z,70.19
2018-08-06T01:20:12.603Z,71.90
2018-08-06T01:22:42.155Z,71.89
2018-08-06T01:25:11.474Z,73.23
2018-08-06T01:27:40.112Z,70.50
2018-08-06T01:30:10.828Z,68.51
2018-08-06T01:32:39.417Z,71.08
2018-08-06T01:35:09.652Z,73.69
2018-08-06T01:37:38.440Z,72.56
2018-08-06T01:40:09.101Z,65.41
2018-08-06T01:42:37.902Z,70.53
2018-08-06T01:45:07.261Z,71.11
2018-08-06T01:47:36.472Z,76.14
2018-08-06T01:50:05.967Z,66.42
2018-08-06T01:52:34.690Z,69.24
2018-08-06T01:55:03.421Z,76.70
2018-08-06T01:57:32.312Z,75.39
2018-08-06T02:00:01.040Z,76.69
2018-08-06T02:02:29.787Z,77.74
2018-08-06T02:04:58.524Z,68.64
2018-08-06T02:07:27.256Z,76.21
2018-08-06T02:09:56.076Z,77.40
2018-08-06T02:12:24.843Z,77.70
2018-08-06T02:14:53.594Z,76.83
2018-08-06T02:17:22.361Z,77.50
2018-08-06T02:19:51.380Z,69.69
2018-08-06T02:22:20.830Z,74.11
2018-08-06T02:24:49.479Z,78.41
2018-08-06T02:27:18.359Z,68.40
2018-08-06T02:29:47.071Z,78.83
2018-08-06T02:32:15.974Z,78.60
2018-08-06T02:34:44.745Z,74.45
2018-08-06T02:37:13.601Z,73.92
2018-08-06T02:39:42.229Z,73.14
2018-08-06T02:42:11.223Z,78.14
2018-08-06T02:44:39.912Z,72.72
2018-08-06T02:47:08.737Z,74.28
2018-08-06T02:49:37.807Z,70.61
2018-08-06T02:52:07.100Z,78.62
2018-08-06T02:54:35.679Z,71.25
2018-08-06T02:57:04.421Z,76.47
2018-08-06T02:59:33.197Z,74.00
2018-08-06T03:02:02.090Z,73.92
2018-08-06T03:04:31.216Z,75.26
2018-08-06T03:07:03.112Z,72.80
2018-08-06T03:09:31.764Z,72.78
2018-08-06T03:12:00.541Z,77.40
2018-08-06T03:14:29.284Z,77.08
2018-08-06T03:16:57.971Z,72.43
2018-08-06T03:19:26.635Z,73.91
2018-08-06T03:21:55.253Z,74.60
2018-08-06T03:24:24.055Z,73.36
2018-08-06T03:26:52.880Z,78.38
2018-08-06T03:29:21.590Z,74.26
2018-08-06T03:31:50.415Z,74.49
2018-08-06T03:34:19.516Z,77.39
2018-08-06T03:36:48.131Z,68.22
2018-08-06T03:39:16.770Z,69.46
2018-08-06T03:41:45.581Z,70.21
2018-08-06T03:44:14.296Z,76.57
2018-08-06T03:46:42.980Z,76.88
2018-08-06T03:49:11.626Z,77.80
2018-08-06T03:51:40.688Z,76.68
2018-08-06T03:54:09.357Z,75.79
2018-08-06T03:56:38.200Z,77.89
2018-08-06T03:59:06.787Z,69.69
2018-08-06T04:04:31.296Z,64.04
2018-08-06T04:07:00.967Z,78.00
2018-08-06T04:09:29.681Z,79.22
2018-08-06T04:11:58.791Z,77.29
2018-08-06T04:14:27.794Z,77.41
2018-08-06T04:16:56.776Z,72.68
2018-08-06T04:19:25.801Z,75.54
2018-08-06T04:21:54.744Z,72.18
2018-08-06T04:24:23.773Z,76.87
2018-08-06T04:26:52.651Z,63.34
2018-08-06T04:29:21.405Z,66.78
2018-08-06T04:31:50.060Z,67.32
2018-08-06T04:34:18.954Z,71.66
2018-08-06T04:36:47.827Z,75.90
2018-08-06T04:39:16.478Z,78.08
2018-08-06T04:41:45.797Z,74.06
2018-08-06T04:44:14.454Z,74.69
2018-08-06T04:46:43.270Z,65.96
2018-08-06T04:49:12.040Z,66.04
2018-08-06T04:51:40.929Z,66.13
2018-08-06T04:54:09.806Z,70.65
2018-08-06T04:56:38.915Z,67.67
2018-08-06T04:59:07.637Z,63.59
2018-08-06T05:01:36.500Z,65.83
2018-08-06T05:04:05.570Z,59.52
2018-08-06T05:06:34.186Z,67.19
2018-08-06T05:09:03.174Z,68.61
2018-08-06T05:11:32.259Z,62.95
2018-08-06T05:14:01.131Z,61.22
2018-08-06T05:16:29.966Z,59.62
2018-08-06T05:18:58.790Z,63.99
2018-08-06T05:21:27.952Z,59.54
2018-08-06T05:23:59.370Z,59.77
2018-08-06T05:26:30.106Z,58.46
2018-08-06T05:28:58.991Z,63.60
2018-08-06T05:31:28.770Z,60.23
2018-08-06T05:33:58.700Z,62.23
2018-08-06T05:36:28.048Z,58.72
2018-08-06T05:38:57.064Z,59.45
2018-08-06T05:41:27.529Z,62.18
2018-08-06T05:43:58.137Z,58.87
2018-08-06T05:46:27.115Z,59.48
2018-08-06T05:48:56.263Z,58.59
2018-08-06T05:51:25.091Z,60.69
2018-08-06T05:53:53.720Z,58.71
2018-08-06T05:56:22.877Z,61.31
2018-08-06T05:58:51.687Z,61.46
2018-08-06T06:01:20.344Z,61.67
2018-08-06T06:03:49.085Z,63.43
2018-08-06T06:06:19.110Z,59.81
2018-08-06T06:08:48.044Z,62.38
2018-08-06T06:11:16.806Z,61.48
2018-08-06T06:13:45.442Z,62.45
2018-08-06T06:16:14.210Z,61.20
2018-08-06T06:18:43.140Z,61.42
2018-08-06T06:21:11.979Z,65.00
2018-08-06T06:23:40.640Z,62.44
2018-08-06T06:26:09.639Z,60.85
2018-08-06T06:28:38.470Z,61.73
2018-08-06T06:31:07.410Z,63.91
2018-08-06T06:33:36.292Z,65.58
2018-08-06T06:36:05.086Z,61.10
2018-08-06T06:38:34.108Z,66.70
2018-08-06T06:41:03.168Z,61.82
2018-08-06T06:43:32.079Z,60.13
2018-08-06T06:46:01.158Z,63.03
2018-08-06T06:48:30.457Z,62.59
2018-08-06T06:50:59.371Z,60.87
2018-08-06T06:53:28.203Z,63.62
2018-08-06T06:55:57.068Z,60.89
2018-08-06T06:58:26.040Z,59.78
2018-08-06T07:00:54.841Z,61.50
2018-08-06T07:03:23.842Z,64.13
2018-08-06T07:05:53.070Z,63.87
2018-08-06T07:08:21.839Z,63.30
2018-08-06T07:10:50.651Z,61.81
2018-08-06T07:13:19.505Z,64.07
2018-08-06T07:15:48.219Z,61.69
2018-08-06T07:18:17.156Z,63.22
2018-08-06T07:20:46.446Z,63.21
2018-08-06T07:23:15.275Z,60.84
2018-08-06T07:25:44.188Z,63.41
2018-08-06T07:28:13.136Z,62.55
2018-08-06T07:30:42.008Z,60.54
2018-08-06T07:33:10.733Z,61.69
2018-08-06T07:35:39.607Z,61.76
2018-08-06T07:38:08.680Z,61.47
2018-08-06T07:40:37.786Z,61.79
2018-08-06T07:43:06.673Z,60.65
2018-08-06T07:45:35.515Z,59.10
2018-08-06T07:48:04.467Z,58.97
2018-08-06T07:50:33.134Z,58.38
2018-08-06T07:53:02.241Z,58.33
2018-08-06T07:55:31.069Z,56.64
2018-08-06T07:58:00.017Z,58.36
2018-08-06T08:00:28.898Z,58.92
2018-08-06T08:02:57.899Z,59.40
2018-08-06T08:05:26.825Z,58.51
2018-08-06T08:07:55.690Z,59.74
2018-08-06T08:10:24.885Z,58.27
2018-08-06T08:12:53.747Z,57.47
2018-08-06T08:15:25.383Z,58.88
2018-08-06T08:17:54.938Z,57.86
2018-08-06T08:20:23.729Z,60.89
2018-08-06T08:22:52.554Z,59.31
2018-08-06T08:25:22.406Z,58.30
2018-08-06T08:27:51.200Z,58.12
2018-08-06T08:30:20.583Z,56.67
2018-08-06T08:32:49.600Z,59.32
2018-08-06T08:35:18.910Z,59.77
2018-08-06T08:37:47.943Z,58.01
2018-08-06T08:40:19.827Z,58.72
2018-08-06T08:42:48.656Z,58.04
2018-08-06T08:45:18.565Z,57.60
2018-08-06T08:47:47.383Z,57.83
2018-08-06T08:50:17.928Z,59.03
2018-08-06T08:52:46.867Z,56.33
2018-08-06T08:55:17.309Z,56.85
2018-08-06T08:57:46.241Z,55.95
2018-08-06T09:00:19.824Z,56.12
2018-08-06T09:02:49.529Z,53.83
2018-08-06T09:05:18.727Z,55.80
2018-08-06T09:07:47.978Z,55.86
2018-08-06T09:10:17.566Z,54.55
2018-08-06T09:12:46.871Z,54.13
2018-08-06T09:15:19.211Z,55.77
2018-08-06T09:17:48.075Z,54.69
2018-08-06T09:20:17.435Z,55.97
2018-08-06T09:22:46.820Z,54.97
2018-08-06T09:25:16.026Z,54.18
2018-08-06T09:27:46.139Z,54.84
2018-08-06T09:30:17.195Z,54.67
2018-08-06T09:32:47.444Z,55.01
2018-08-06T09:35:17.111Z,54.72
2018-08-06T09:37:46.163Z,54.22
2018-08-06T09:40:16.349Z,52.43
2018-08-06T09:42:45.821Z,51.87
2018-08-06T09:45:15.974Z,53.32
2018-08-06T09:47:45.864Z,53.09
2018-08-06T09:50:15.594Z,53.34
2018-08-06T09:52:45.164Z,53.22
2018-08-06T09:55:15.420Z,51.82
2018-08-06T09:57:44.455Z,52.99
2018-08-06T10:00:21.627Z,52.66
2018-08-06T10:02:51.292Z,52.39
2018-08-06T10:05:21.330Z,51.79
2018-08-06T10:07:50.143Z,50.92
2018-08-06T10:10:19.045Z,50.88
2018-08-06T10:12:48.056Z,49.86
2018-08-06T10:15:17.702Z,51.15
2018-08-06T10:17:48.177Z,51.24
2018-08-06T10:20:19.055Z,50.25
2018-08-06T10:22:48.616Z,48.75
2018-08-06T10:25:17.706Z,46.86
2018-08-06T10:27:47.209Z,47.31
2018-08-06T10:30:22.993Z,48.79
2018-08-06T10:32:51.693Z,48.65
2018-08-06T10:35:21.063Z,47.21
2018-08-06T10:37:49.946Z,47.95
2018-08-06T10:40:22.042Z,47.08
2018-08-06T10:42:50.969Z,43.68
2018-08-06T10:45:21.999Z,43.93
2018-08-06T10:47:51.274Z,42.97
2018-08-06T10:50:20.432Z,42.66
2018-08-06T10:52:49.338Z,43.24
2018-08-06T10:55:18.099Z,42.01
2018-08-06T10:57:47.268Z,39.74
2018-08-06T11:00:18.701Z,38.85
2018-08-06T11:02:48.270Z,39.80
2018-08-06T11:05:18.115Z,38.58
2018-08-06T11:07:47.683Z,39.37
2018-08-06T11:10:19.598Z,37.37
2018-08-06T11:12:48.427Z,38.10
2018-08-06T11:15:19.087Z,38.82
2018-08-06T11:17:48.114Z,37.09
2018-08-06T11:20:17.956Z,35.86
2018-08-06T11:22:47.266Z,36.22
2018-08-06T11:25:17.776Z,34.78
2018-08-06T11:27:46.747Z,32.19
2018-08-06T11:30:17.751Z,34.38
2018-08-06T11:32:47.379Z,33.26
2018-08-06T11:35:16.801Z,34.48
2018-08-06T11:37:45.592Z,33.82
2018-08-06T11:40:16.027Z,34.06
2018-08-06T11:42:45.507Z,35.16
2018-08-06T11:45:16.138Z,33.00
2018-08-06T11:47:45.200Z,31.82
2018-08-06T11:50:14.199Z,32.43
2018-08-06T11:52:44.191Z,30.55
2018-08-06T11:55:13.122Z,30.33
2018-08-06T11:57:42.134Z,30.35
2018-08-06T12:00:15.057Z,30.94
2018-08-06T12:02:43.815Z,31.16
2018-08-06T12:05:12.873Z,29.06
2018-08-06T12:07:41.595Z,30.63
2018-08-06T12:10:12.776Z,27.76
2018-08-06T12:12:42.329Z,28.56
2018-08-06T12:15:12.549Z,30.68
2018-08-06T12:17:42.267Z,29.20
2018-08-06T12:20:14.237Z,30.20
2018-08-06T12:22:44.031Z,31.03
2018-08-06T12:25:14.138Z,27.51
2018-08-06T12:27:43.325Z,28.12
2018-08-06T12:30:14.488Z,27.70
2018-08-06T12:32:44.029Z,25.43
2018-08-06T12:35:12.919Z,25.26
2018-08-06T12:37:41.760Z,28.19
2018-08-06T12:40:25.936Z,29.23
2018-08-06T12:42:54.807Z,28.45
2018-08-06T12:45:23.795Z,23.56
2018-08-06T12:47:52.891Z,26.50
2018-08-06T12:50:21.718Z,25.70
2018-08-06T12:52:50.576Z,25.25
2018-08-06T12:55:20.011Z,24.70
2018-08-06T12:57:49.001Z,23.85
2018-08-06T13:00:23.347Z,23.32
2018-08-06T13:02:52.976Z,22.97
2018-08-06T13:05:22.548Z,25.17
2018-08-06T13:07:51.380Z,25.28
2018-08-06T13:10:20.250Z,26.32
2018-08-06T13:12:49.096Z,24.44
2018-08-06T13:15:18.227Z,24.56
2018-08-06T13:17:47.130Z,21.92
2018-08-06T13:20:16.027Z,24.98
2018-08-06T13:22:45.139Z,24.20
2018-08-06T13:25:14.232Z,24.01
2018-08-06T13:27:43.057Z,25.07
2018-08-06T13:30:14.012Z,24.30
2018-08-06T13:32:43.833Z,24.27
2018-08-06T13:35:13.535Z,24.15
2018-08-06T13:37:42.183Z,24.02
2018-08-06T13:40:11.948Z,22.37
2018-08-06T13:42:40.760Z,22.41
2018-08-06T13:45:11.734Z,21.91
2018-08-06T13:47:40.484Z,22.98
2018-08-06T13:50:09.961Z,20.93
2018-08-06T13:52:39.392Z,22.50
2018-08-06T13:55:09.667Z,21.77
2018-08-06T13:57:38.673Z,21.74
2018-08-06T14:00:14.884Z,21.65
2018-08-06T14:02:44.535Z,20.24
2018-08-06T14:05:14.841Z,21.33
2018-08-06T14:07:44.885Z,18.77
2018-08-06T14:10:13.715Z,21.09
2018-08-06T14:12:42.353Z,22.29
2018-08-06T14:15:12.404Z,21.92
2018-08-06T14:17:41.823Z,20.08
2018-08-06T14:20:13.441Z,19.98
2018-08-06T14:22:43.095Z,18.87
2018-08-06T14:25:12.550Z,21.06
2018-08-06T14:27:41.480Z,21.37
2018-08-06T14:30:13.376Z,21.54
2018-08-06T14:32:42.791Z,20.44
2018-08-06T14:35:11.971Z,21.16
2018-08-06T14:37:40.863Z,20.12
2018-08-06T14:40:12.579Z,20.75
2018-08-06T14:42:41.259Z,19.65
2018-08-06T14:45:10.942Z,20.84
2018-08-06T14:47:39.655Z,20.36
2018-08-06T14:50:10.184Z,20.58
2018-08-06T14:52:39.123Z,20.94
2018-08-06T14:55:08.137Z,21.42
2018-08-06T14:57:37.592Z,19.46
2018-08-06T15:00:16.761Z,20.85
2018-08-06T15:02:45.513Z,18.66
2018-08-06T15:05:14.304Z,19.99
2018-08-06T15:07:43.065Z,21.96
2018-08-06T15:10:13.322Z,22.42
2018-08-06T15:12:42.113Z,21.40
2018-08-06T15:15:16.424Z,21.98
2018-08-06T15:17:45.968Z,21.49
2018-08-06T15:20:16.046Z,21.85
2018-08-06T15:22:45.155Z,22.29
2018-08-06T15:25:16.641Z,21.88
2018-08-06T15:27:45.362Z,23.05
2018-08-06T15:30:15.501Z,28.26
2018-08-06T15:32:45.207Z,27.48
2018-08-06T15:35:14.853Z,28.91
2018-08-06T15:37:47.896Z,29.95
2018-08-06T15:40:18.964Z,30.86
2018-08-06T15:42:47.909Z,29.74
2018-08-06T15:45:17.024Z,29.83
2018-08-06T15:47:46.587Z,30.59
2018-08-06T15:50:17.939Z,32.82
2018-08-06T15:52:46.762Z,27.75
2018-08-06T15:55:17.881Z,28.94
2018-08-06T15:57:47.283Z,31.98
2018-08-06T16:00:23.249Z,29.88
2018-08-06T16:02:52.083Z,28.06
2018-08-06T16:05:20.779Z,26.83
2018-08-06T16:07:49.698Z,29.04
2018-08-06T16:10:19.055Z,29.46
2018-08-06T16:12:47.854Z,30.68
2018-08-06T16:15:17.288Z,29.58
2018-08-06T16:17:46.492Z,30.60
2018-08-06T16:20:17.873Z,30.71
2018-08-06T16:22:47.155Z,29.66
2018-08-06T16:25:16.688Z,31.42
2018-08-06T16:27:46.610Z,31.30
2018-08-06T16:30:16.968Z,32.27
2018-08-06T16:32:47.002Z,34.23
2018-08-06T16:35:16.987Z,32.64
2018-08-06T16:37:45.888Z,34.00
2018-08-06T16:40:16.383Z,33.35
2018-08-06T16:42:45.263Z,32.84
2018-08-06T16:45:14.157Z,32.32
2018-08-06T16:47:43.271Z,33.15
2018-08-06T16:50:14.916Z,32.74
2018-08-06T16:52:43.985Z,34.58
2018-08-06T16:55:13.003Z,33.72
2018-08-06T16:57:42.003Z,37.63
2018-08-06T17:00:14.415Z,37.16
2018-08-06T17:02:43.192Z,33.97
2018-08-06T17:05:13.268Z,33.37
2018-08-06T17:07:43.222Z,35.49
2018-08-06T17:10:14.191Z,35.74
2018-08-06T17:12:44.685Z,34.96
2018-08-06T17:15:15.016Z,36.23
2018-08-06T17:17:43.899Z,36.41
2018-08-06T17:20:15.896Z,36.54
2018-08-06T17:22:46.370Z,34.65
2018-08-06T17:25:15.875Z,34.27
2018-08-06T17:27:44.907Z,35.83
2018-08-06T17:30:14.818Z,33.31
2018-08-06T17:32:43.763Z,35.61
2018-08-06T17:35:13.340Z,38.43
2018-08-06T17:37:43.418Z,37.21
2018-08-06T17:40:18.483Z,37.19
2018-08-06T17:42:47.538Z,42.11
2018-08-06T17:45:18.968Z,40.29
2018-08-06T17:47:47.750Z,39.57
2018-08-06T17:50:18.589Z,39.61
2018-08-06T17:52:48.966Z,41.19
2018-08-06T17:55:19.036Z,43.41
2018-08-06T17:57:48.025Z,43.88
2018-08-06T18:00:17.855Z,43.63
2018-08-06T18:02:46.786Z,43.14
2018-08-06T18:05:17.190Z,44.19
2018-08-06T18:07:46.371Z,45.31
2018-08-06T18:10:16.867Z,45.46
2018-08-06T18:12:46.244Z,45.16
2018-08-06T18:15:15.910Z,46.24
2018-08-06T18:17:45.490Z,46.01
2018-08-06T18:20:17.295Z,46.61
2018-08-06T18:22:46.319Z,46.44
2018-08-06T18:25:17.160Z,47.29
2018-08-06T18:27:46.979Z,46.68
2018-08-06T18:30:17.802Z,47.10
2018-08-06T18:32:46.550Z,47.52
2018-08-06T18:35:17.263Z,47.71
2018-08-06T18:37:45.965Z,47.30
2018-08-06T18:40:15.735Z,47.12
2018-08-06T18:42:44.977Z,47.44
2018-08-06T18:45:15.899Z,48.96
2018-08-06T18:47:45.803Z,48.81
2018-08-06T18:50:15.617Z,46.90
2018-08-06T18:52:45.557Z,49.18
2018-08-06T18:55:15.214Z,49.68
2018-08-06T18:57:44.683Z,50.24
2018-08-06T19:00:19.059Z,49.17
2018-08-06T19:02:48.232Z,50.12
2018-08-06T19:05:19.254Z,49.36
2018-08-06T19:07:50.890Z,49.72
2018-08-06T19:10:22.198Z,47.16
2018-08-06T19:12:56.616Z,48.63
2018-08-06T19:15:26.667Z,49.80
2018-08-06T19:18:04.751Z,49.27
2018-08-06T19:20:34.733Z,48.16
2018-08-06T19:23:03.882Z,48.42
2018-08-06T19:25:33.797Z,50.30
2018-08-06T19:28:02.879Z,50.30
2018-08-06T19:30:37.052Z,49.44
2018-08-06T19:33:06.212Z,49.59
2018-08-06T19:35:35.089Z,48.87
2018-08-06T19:38:03.821Z,49.20
2018-08-06T19:40:32.613Z,48.62
2018-08-06T19:43:08.403Z,49.22
2018-08-06T19:45:38.422Z,50.19
2018-08-06T19:48:07.419Z,51.88
2018-08-06T19:50:39.691Z,49.57
2018-08-06T19:53:09.820Z,49.24
2018-08-06T19:55:43.963Z,50.69
2018-08-06T19:58:12.875Z,52.24
2018-08-06T20:00:41.845Z,51.64
2018-08-06T20:03:10.918Z,53.83
2018-08-06T20:05:39.735Z,52.29
2018-08-06T20:08:08.692Z,53.96
2018-08-06T20:10:37.956Z,52.35
2018-08-06T20:13:07.544Z,51.38
2018-08-06T20:15:36.594Z,53.51
2018-08-06T20:18:05.883Z,54.87
2018-08-06T20:20:34.711Z,58.01
2018-08-06T20:23:03.663Z,55.95
2018-08-06T20:25:32.532Z,55.38
2018-08-06T20:28:01.449Z,54.76
2018-08-06T20:30:30.555Z,55.91
2018-08-06T20:33:01.481Z,54.97
2018-08-06T20:35:31.766Z,56.58
2018-08-06T20:38:01.532Z,56.02
2018-08-06T20:40:30.623Z,54.92
2018-08-06T20:42:59.718Z,55.44
2018-08-06T20:45:28.804Z,54.98
2018-08-06T20:47:57.601Z,55.51
2018-08-06T20:50:26.587Z,56.06
2018-08-06T20:52:55.747Z,55.65
2018-08-06T20:55:24.764Z,54.26
2018-08-06T20:57:54.165Z,55.88
2018-08-06T21:00:24.543Z,57.26
2018-08-06T21:02:54.144Z,58.73
2018-08-06T21:05:23.421Z,55.92
2018-08-06T21:07:52.419Z,57.32
2018-08-06T21:10:21.818Z,59.89
2018-08-06T21:12:51.169Z,57.54
2018-08-06T21:15:19.970Z,56.61
2018-08-06T21:17:49.005Z,58.03
2018-08-06T21:20:19.211Z,57.87
2018-08-06T21:22:49.183Z,62.06
2018-08-06T21:25:17.912Z,62.54
2018-08-06T21:27:47.871Z,57.93
2018-08-06T21:30:18.871Z,58.56
2018-08-06T21:32:57.387Z,58.03
2018-08-06T21:35:27.354Z,58.63
2018-08-06T21:37:56.804Z,58.76
2018-08-06T21:40:28.372Z,60.78
2018-08-06T21:42:57.184Z,58.47
2018-08-06T21:45:26.343Z,57.13
2018-08-06T21:47:55.060Z,59.24
2018-08-06T21:50:24.129Z,57.83
2018-08-06T21:52:53.019Z,56.93
2018-08-06T21:55:21.843Z,58.62
2018-08-06T21:57:51.220Z,59.41
2018-08-06T22:00:39.819Z,58.51
2018-08-06T22:03:18.128Z,60.04
2018-08-06T22:05:47.428Z,61.13
2018-08-06T22:08:16.468Z,58.74
2018-08-06T22:10:45.109Z,59.35
2018-08-06T22:13:14.076Z,58.59
2018-08-06T22:15:42.875Z,61.08
2018-08-06T22:18:13.088Z,61.37
2018-08-06T22:20:42.206Z,61.52
2018-08-06T22:23:10.847Z,58.00
2018-08-06T22:25:39.927Z,58.72
2018-08-06T22:28:10.951Z,58.69
2018-08-06T22:30:39.759Z,61.87
2018-08-06T22:33:09.044Z,59.34
2018-08-06T22:35:38.975Z,61.94
2018-08-06T22:38:08.535Z,64.04
2018-08-06T22:40:37.476Z,63.29
2018-08-06T22:43:06.318Z,59.63
2018-08-06T22:45:35.354Z,56.25
2018-08-06T22:48:04.443Z,58.90
2018-08-06T22:50:33.303Z,57.55
2018-08-06T22:53:02.266Z,56.06
2018-08-06T22:55:41.049Z,57.23
2018-08-06T22:58:09.721Z,58.76
2018-08-06T23:00:38.462Z,57.53
2018-08-06T23:03:09.026Z,55.75
2018-08-06T23:05:37.763Z,57.82
2018-08-06T23:08:06.583Z,57.80
2018-08-06T23:10:35.427Z,59.35
2018-08-06T23:13:04.226Z,57.56
2018-08-06T23:15:33.013Z,56.20
2018-08-06T23:18:01.680Z,57.78
2018-08-06T23:20:30.503Z,55.81
2018-08-06T23:22:59.354Z,54.72
2018-08-06T23:25:28.272Z,55.26
2018-08-06T23:27:56.995Z,56.04
2018-08-06T23:30:26.040Z,58.70
2018-08-06T23:32:54.927Z,56.20
2018-08-06T23:35:23.747Z,55.20
2018-08-06T23:37:52.367Z,54.57
2018-08-06T23:40:21.399Z,55.15
2018-08-06T23:42:50.301Z,55.61
2018-08-06T23:45:19.084Z,55.57
2018-08-06T23:47:47.717Z,54.58
2018-08-06T23:50:16.565Z,54.91
2018-08-06T23:52:46.502Z,55.70
2018-08-06T23:55:17.922Z,55.61
2018-08-06T23:57:47.128Z,55.13
